sensor_id;sensor_type;location;lat;lon;timestamp;P1;durP1;ratioP1;P2;durP2;ratioP2
7177;SDS011;3630;42.146;24.756;2023-03-12T00:01:14;2.28;;;2.08;;
7177;SDS011;3630;42.146;24.756;2023-03-12T00:03:42;2.27;;;2.07;;
7177;SDS011;3630;42.146;24.756;2023-03-12T00:06:09;1.77;;;1.67;;
7177;SDS011;3630;42.146;24.756;2023-03-12T00:08:36;2.10;;;1.90;;
7177;SDS011;3630;42.146;24.756;2023-03-12T00:11:06;1.80;;;1.70;;
7177;SDS011;3630;42.146;24.756;2023-03-12T00:13:35;2.47;;;2.10;;
7177;SDS011;3630;42.146;24.756;2023-03-12T00:16:03;2.47;;;2.07;;
7177;SDS011;3630;42.146;24.756;2023-03-12T00:18:31;2.47;;;2.28;;
7177;SDS011;3630;42.146;24.756;2023-03-12T00:20:58;2.73;;;2.10;;
7177;SDS011;3630;42.146;24.756;2023-03-12T00:23:25;3.37;;;2.30;;
7177;SDS011;3630;42.146;24.756;2023-03-12T00:25:51;2.40;;;2.07;;
7177;SDS011;3630;42.146;24.756;2023-03-12T00:28:21;4.00;;;2.10;;
7177;SDS011;3630;42.146;24.756;2023-03-12T00:30:47;3.10;;;2.10;;
7177;SDS011;3630;42.146;24.756;2023-03-12T00:33:16;2.03;;;1.93;;
7177;SDS011;3630;42.146;24.756;2023-03-12T00:35:42;2.13;;;1.97;;
7177;SDS011;3630;42.146;24.756;2023-03-12T00:38:10;3.27;;;2.43;;
7177;SDS011;3630;42.146;24.756;2023-03-12T00:40:37;3.63;;;2.10;;
7177;SDS011;3630;42.146;24.756;2023-03-12T00:43:04;3.13;;;2.20;;
7177;SDS011;3630;42.146;24.756;2023-03-12T00:45:32;2.20;;;2.00;;
7177;SDS011;3630;42.146;24.756;2023-03-12T00:47:58;3.60;;;2.07;;
7177;SDS011;3630;42.146;24.756;2023-03-12T00:50:25;3.42;;;2.78;;
7177;SDS011;3630;42.146;24.756;2023-03-12T00:52:52;4.70;;;2.33;;
7177;SDS011;3630;42.146;24.756;2023-03-12T00:55:19;4.07;;;2.50;;
7177;SDS011;3630;42.146;24.756;2023-03-12T00:57:46;4.00;;;2.30;;
7177;SDS011;3630;42.146;24.756;2023-03-12T01:00:14;5.70;;;2.87;;
7177;SDS011;3630;42.146;24.756;2023-03-12T01:02:42;2.80;;;2.60;;
7177;SDS011;3630;42.146;24.756;2023-03-12T01:05:10;6.07;;;2.93;;
7177;SDS011;3630;42.146;24.756;2023-03-12T01:07:37;2.60;;;2.27;;
7177;SDS011;3630;42.146;24.756;2023-03-12T01:10:04;2.17;;;1.97;;
7177;SDS011;3630;42.146;24.756;2023-03-12T01:12:32;3.10;;;2.80;;
7177;SDS011;3630;42.146;24.756;2023-03-12T01:15:00;3.03;;;2.60;;
7177;SDS011;3630;42.146;24.756;2023-03-12T01:17:27;7.47;;;3.00;;
7177;SDS011;3630;42.146;24.756;2023-03-12T01:19:55;4.73;;;2.53;;
7177;SDS011;3630;42.146;24.756;2023-03-12T01:22:21;3.87;;;2.67;;
7177;SDS011;3630;42.146;24.756;2023-03-12T01:24:48;5.90;;;2.85;;
7177;SDS011;3630;42.146;24.756;2023-03-12T01:27:15;5.23;;;2.80;;
7177;SDS011;3630;42.146;24.756;2023-03-12T01:29:42;4.77;;;2.70;;
7177;SDS011;3630;42.146;24.756;2023-03-12T01:32:09;5.00;;;2.50;;
7177;SDS011;3630;42.146;24.756;2023-03-12T01:34:35;2.93;;;2.63;;
7177;SDS011;3630;42.146;24.756;2023-03-12T01:37:04;4.97;;;2.70;;
7177;SDS011;3630;42.146;24.756;2023-03-12T01:39:32;5.73;;;2.73;;
7177;SDS011;3630;42.146;24.756;2023-03-12T01:41:58;3.10;;;2.80;;
7177;SDS011;3630;42.146;24.756;2023-03-12T01:44:26;5.53;;;3.17;;
7177;SDS011;3630;42.146;24.756;2023-03-12T01:46:53;5.07;;;2.80;;
7177;SDS011;3630;42.146;24.756;2023-03-12T01:49:21;4.73;;;3.30;;
7177;SDS011;3630;42.146;24.756;2023-03-12T01:51:51;4.50;;;3.10;;
7177;SDS011;3630;42.146;24.756;2023-03-12T01:54:24;3.90;;;2.90;;
7177;SDS011;3630;42.146;24.756;2023-03-12T01:56:55;4.07;;;2.97;;
7177;SDS011;3630;42.146;24.756;2023-03-12T01:59:23;7.07;;;3.70;;
7177;SDS011;3630;42.146;24.756;2023-03-12T02:01:54;5.22;;;3.47;;
7177;SDS011;3630;42.146;24.756;2023-03-12T02:04:21;4.40;;;3.37;;
7177;SDS011;3630;42.146;24.756;2023-03-12T02:06:52;7.55;;;4.13;;
7177;SDS011;3630;42.146;24.756;2023-03-12T02:09:27;4.53;;;3.73;;
7177;SDS011;3630;42.146;24.756;2023-03-12T02:11:55;9.00;;;4.53;;
7177;SDS011;3630;42.146;24.756;2023-03-12T02:14:21;7.93;;;3.83;;
7177;SDS011;3630;42.146;24.756;2023-03-12T02:16:48;5.57;;;3.60;;
7177;SDS011;3630;42.146;24.756;2023-03-12T02:19:18;5.43;;;4.50;;
7177;SDS011;3630;42.146;24.756;2023-03-12T02:21:49;4.67;;;4.27;;
7177;SDS011;3630;42.146;24.756;2023-03-12T02:24:17;6.77;;;4.53;;
7177;SDS011;3630;42.146;24.756;2023-03-12T02:26:53;4.80;;;3.90;;
7177;SDS011;3630;42.146;24.756;2023-03-12T02:29:20;8.43;;;4.57;;
7177;SDS011;3630;42.146;24.756;2023-03-12T02:31:51;6.93;;;4.60;;
7177;SDS011;3630;42.146;24.756;2023-03-12T02:34:19;4.50;;;4.10;;
7177;SDS011;3630;42.146;24.756;2023-03-12T02:36:46;4.97;;;4.43;;
7177;SDS011;3630;42.146;24.756;2023-03-12T02:39:13;4.63;;;4.27;;
7177;SDS011;3630;42.146;24.756;2023-03-12T02:41:42;7.13;;;4.40;;
7177;SDS011;3630;42.146;24.756;2023-03-12T02:44:13;8.30;;;4.57;;
7177;SDS011;3630;42.146;24.756;2023-03-12T02:46:43;8.90;;;4.97;;
7177;SDS011;3630;42.146;24.756;2023-03-12T02:49:12;6.60;;;4.83;;
7177;SDS011;3630;42.146;24.756;2023-03-12T02:51:39;6.33;;;4.90;;
7177;SDS011;3630;42.146;24.756;2023-03-12T02:54:07;6.10;;;4.77;;
7177;SDS011;3630;42.146;24.756;2023-03-12T02:56:34;5.53;;;4.50;;
7177;SDS011;3630;42.146;24.756;2023-03-12T02:59:01;6.30;;;5.60;;
7177;SDS011;3630;42.146;24.756;2023-03-12T03:01:30;12.33;;;5.30;;
7177;SDS011;3630;42.146;24.756;2023-03-12T03:03:58;5.30;;;4.67;;
7177;SDS011;3630;42.146;24.756;2023-03-12T03:06:25;5.00;;;4.50;;
7177;SDS011;3630;42.146;24.756;2023-03-12T03:08:52;5.17;;;4.67;;
7177;SDS011;3630;42.146;24.756;2023-03-12T03:11:19;5.57;;;4.40;;
7177;SDS011;3630;42.146;24.756;2023-03-12T03:13:48;7.27;;;5.30;;
7177;SDS011;3630;42.146;24.756;2023-03-12T03:16:15;5.03;;;4.50;;
7177;SDS011;3630;42.146;24.756;2023-03-12T03:18:43;6.97;;;4.93;;
7177;SDS011;3630;42.146;24.756;2023-03-12T03:21:10;10.50;;;4.87;;
7177;SDS011;3630;42.146;24.756;2023-03-12T03:23:40;8.63;;;4.63;;
7177;SDS011;3630;42.146;24.756;2023-03-12T03:26:07;7.47;;;5.13;;
7177;SDS011;3630;42.146;24.756;2023-03-12T03:28:35;6.80;;;5.17;;
7177;SDS011;3630;42.146;24.756;2023-03-12T03:31:02;6.47;;;5.73;;
7177;SDS011;3630;42.146;24.756;2023-03-12T03:33:30;7.50;;;4.47;;
7177;SDS011;3630;42.146;24.756;2023-03-12T03:35:59;6.70;;;4.97;;
7177;SDS011;3630;42.146;24.756;2023-03-12T03:38:27;5.83;;;5.33;;
7177;SDS011;3630;42.146;24.756;2023-03-12T03:40:55;5.27;;;4.77;;
7177;SDS011;3630;42.146;24.756;2023-03-12T03:43:22;7.10;;;4.87;;
7177;SDS011;3630;42.146;24.756;2023-03-12T03:45:55;5.37;;;4.73;;
7177;SDS011;3630;42.146;24.756;2023-03-12T03:48:22;4.83;;;4.40;;
7177;SDS011;3630;42.146;24.756;2023-03-12T03:50:49;6.20;;;4.43;;
7177;SDS011;3630;42.146;24.756;2023-03-12T03:53:18;5.50;;;4.95;;
7177;SDS011;3630;42.146;24.756;2023-03-12T03:55:45;8.13;;;4.60;;
7177;SDS011;3630;42.146;24.756;2023-03-12T03:58:12;5.53;;;4.60;;
7177;SDS011;3630;42.146;24.756;2023-03-12T04:00:39;4.90;;;4.43;;
7177;SDS011;3630;42.146;24.756;2023-03-12T04:03:09;5.17;;;4.40;;
7177;SDS011;3630;42.146;24.756;2023-03-12T04:05:35;5.17;;;4.07;;
7177;SDS011;3630;42.146;24.756;2023-03-12T04:08:03;5.90;;;5.10;;
7177;SDS011;3630;42.146;24.756;2023-03-12T04:10:31;5.43;;;4.00;;
7177;SDS011;3630;42.146;24.756;2023-03-12T04:12:58;4.07;;;3.77;;
7177;SDS011;3630;42.146;24.756;2023-03-12T04:15:25;3.93;;;3.50;;
7177;SDS011;3630;42.146;24.756;2023-03-12T04:17:51;4.68;;;4.28;;
7177;SDS011;3630;42.146;24.756;2023-03-12T04:20:18;4.57;;;4.17;;
7177;SDS011;3630;42.146;24.756;2023-03-12T04:22:45;4.07;;;3.77;;
7177;SDS011;3630;42.146;24.756;2023-03-12T04:25:12;4.77;;;3.30;;
7177;SDS011;3630;42.146;24.756;2023-03-12T04:27:40;5.10;;;3.60;;
7177;SDS011;3630;42.146;24.756;2023-03-12T04:30:07;3.93;;;3.60;;
7177;SDS011;3630;42.146;24.756;2023-03-12T04:32:35;4.30;;;3.90;;
7177;SDS011;3630;42.146;24.756;2023-03-12T04:35:02;5.97;;;3.80;;
7177;SDS011;3630;42.146;24.756;2023-03-12T04:37:30;4.38;;;3.92;;
7177;SDS011;3630;42.146;24.756;2023-03-12T04:39:58;3.67;;;3.37;;
7177;SDS011;3630;42.146;24.756;2023-03-12T04:42:26;3.57;;;3.27;;
7177;SDS011;3630;42.146;24.756;2023-03-12T04:44:54;3.30;;;3.00;;
7177;SDS011;3630;42.146;24.756;2023-03-12T04:47:21;4.10;;;3.80;;
7177;SDS011;3630;42.146;24.756;2023-03-12T04:49:47;7.80;;;4.00;;
7177;SDS011;3630;42.146;24.756;2023-03-12T04:52:14;6.47;;;3.33;;
7177;SDS011;3630;42.146;24.756;2023-03-12T04:54:42;5.10;;;3.37;;
7177;SDS011;3630;42.146;24.756;2023-03-12T04:57:09;6.63;;;3.40;;
7177;SDS011;3630;42.146;24.756;2023-03-12T04:59:36;3.43;;;3.13;;
7177;SDS011;3630;42.146;24.756;2023-03-12T05:02:04;3.60;;;3.30;;
7177;SDS011;3630;42.146;24.756;2023-03-12T05:04:31;5.60;;;3.57;;
7177;SDS011;3630;42.146;24.756;2023-03-12T05:06:57;3.80;;;3.50;;
7177;SDS011;3630;42.146;24.756;2023-03-12T05:09:24;3.20;;;2.97;;
7177;SDS011;3630;42.146;24.756;2023-03-12T05:11:51;5.13;;;3.73;;
7177;SDS011;3630;42.146;24.756;2023-03-12T05:14:18;6.00;;;3.20;;
7177;SDS011;3630;42.146;24.756;2023-03-12T05:16:45;3.00;;;2.80;;
7177;SDS011;3630;42.146;24.756;2023-03-12T05:19:13;4.03;;;3.73;;
7177;SDS011;3630;42.146;24.756;2023-03-12T05:21:40;3.63;;;3.33;;
7177;SDS011;3630;42.146;24.756;2023-03-12T05:24:08;3.50;;;3.20;;
7177;SDS011;3630;42.146;24.756;2023-03-12T05:26:36;3.50;;;3.20;;
7177;SDS011;3630;42.146;24.756;2023-03-12T05:29:03;5.63;;;3.50;;
7177;SDS011;3630;42.146;24.756;2023-03-12T05:31:31;5.93;;;3.77;;
7177;SDS011;3630;42.146;24.756;2023-03-12T05:33:59;5.13;;;3.10;;
7177;SDS011;3630;42.146;24.756;2023-03-12T05:36:28;3.33;;;3.03;;
7177;SDS011;3630;42.146;24.756;2023-03-12T05:38:54;3.33;;;3.00;;
7177;SDS011;3630;42.146;24.756;2023-03-12T05:41:22;3.53;;;3.23;;
7177;SDS011;3630;42.146;24.756;2023-03-12T05:43:51;5.83;;;3.40;;
7177;SDS011;3630;42.146;24.756;2023-03-12T05:46:20;3.93;;;2.93;;
7177;SDS011;3630;42.146;24.756;2023-03-12T05:48:47;5.70;;;3.10;;
7177;SDS011;3630;42.146;24.756;2023-03-12T05:51:14;3.00;;;2.77;;
7177;SDS011;3630;42.146;24.756;2023-03-12T05:53:43;4.97;;;3.37;;
7177;SDS011;3630;42.146;24.756;2023-03-12T05:56:11;2.93;;;2.53;;
7177;SDS011;3630;42.146;24.756;2023-03-12T05:58:39;3.73;;;2.90;;
7177;SDS011;3630;42.146;24.756;2023-03-12T06:01:10;3.60;;;3.30;;
7177;SDS011;3630;42.146;24.756;2023-03-12T06:03:38;2.97;;;2.77;;
7177;SDS011;3630;42.146;24.756;2023-03-12T06:06:06;4.00;;;2.83;;
7177;SDS011;3630;42.146;24.756;2023-03-12T06:08:33;2.97;;;2.40;;
7177;SDS011;3630;42.146;24.756;2023-03-12T06:11:02;3.13;;;2.83;;
7177;SDS011;3630;42.146;24.756;2023-03-12T06:13:29;5.67;;;3.00;;
7177;SDS011;3630;42.146;24.756;2023-03-12T06:16:00;3.27;;;2.97;;
7177;SDS011;3630;42.146;24.756;2023-03-12T06:18:28;3.27;;;2.97;;
7177;SDS011;3630;42.146;24.756;2023-03-12T06:20:55;4.20;;;3.53;;
7177;SDS011;3630;42.146;24.756;2023-03-12T06:23:33;3.13;;;2.60;;
7177;SDS011;3630;42.146;24.756;2023-03-12T06:26:01;2.93;;;2.63;;
7177;SDS011;3630;42.146;24.756;2023-03-12T06:28:28;4.00;;;2.87;;
7177;SDS011;3630;42.146;24.756;2023-03-12T06:30:55;3.33;;;2.97;;
7177;SDS011;3630;42.146;24.756;2023-03-12T06:33:22;3.13;;;2.83;;
7177;SDS011;3630;42.146;24.756;2023-03-12T06:35:52;2.80;;;2.60;;
7177;SDS011;3630;42.146;24.756;2023-03-12T06:38:19;2.53;;;2.33;;
7177;SDS011;3630;42.146;24.756;2023-03-12T06:40:52;6.60;;;2.93;;
7177;SDS011;3630;42.146;24.756;2023-03-12T06:43:22;5.43;;;2.70;;
7177;SDS011;3630;42.146;24.756;2023-03-12T06:45:49;2.10;;;2.00;;
7177;SDS011;3630;42.146;24.756;2023-03-12T06:48:16;2.10;;;2.00;;
7177;SDS011;3630;42.146;24.756;2023-03-12T06:50:43;9.33;;;2.40;;
7177;SDS011;3630;42.146;24.756;2023-03-12T06:53:09;1.90;;;1.77;;
7177;SDS011;3630;42.146;24.756;2023-03-12T06:55:36;3.17;;;2.20;;
7177;SDS011;3630;42.146;24.756;2023-03-12T06:58:03;2.47;;;2.10;;
7177;SDS011;3630;42.146;24.756;2023-03-12T07:00:32;3.60;;;2.30;;
7177;SDS011;3630;42.146;24.756;2023-03-12T07:02:59;2.20;;;2.00;;
7177;SDS011;3630;42.146;24.756;2023-03-12T07:05:26;3.87;;;2.30;;
7177;SDS011;3630;42.146;24.756;2023-03-12T07:07:53;3.03;;;1.80;;
7177;SDS011;3630;42.146;24.756;2023-03-12T07:10:19;3.07;;;2.70;;
7177;SDS011;3630;42.146;24.756;2023-03-12T07:12:47;3.40;;;2.00;;
7177;SDS011;3630;42.146;24.756;2023-03-12T07:15:14;2.53;;;2.00;;
7177;SDS011;3630;42.146;24.756;2023-03-12T07:17:43;2.10;;;2.00;;
7177;SDS011;3630;42.146;24.756;2023-03-12T07:20:10;2.40;;;2.03;;
7177;SDS011;3630;42.146;24.756;2023-03-12T07:22:37;4.23;;;2.20;;
7177;SDS011;3630;42.146;24.756;2023-03-12T07:25:04;4.60;;;2.47;;
7177;SDS011;3630;42.146;24.756;2023-03-12T07:27:31;1.97;;;1.87;;
7177;SDS011;3630;42.146;24.756;2023-03-12T07:29:58;3.57;;;2.20;;
7177;SDS011;3630;42.146;24.756;2023-03-12T07:32:25;3.03;;;1.97;;
7177;SDS011;3630;42.146;24.756;2023-03-12T07:34:53;1.93;;;1.83;;
7177;SDS011;3630;42.146;24.756;2023-03-12T07:37:20;2.57;;;2.37;;
7177;SDS011;3630;42.146;24.756;2023-03-12T07:39:47;3.53;;;2.00;;
7177;SDS011;3630;42.146;24.756;2023-03-12T07:42:16;2.47;;;1.87;;
7177;SDS011;3630;42.146;24.756;2023-03-12T07:44:43;2.30;;;2.10;;
7177;SDS011;3630;42.146;24.756;2023-03-12T07:47:10;1.90;;;1.80;;
7177;SDS011;3630;42.146;24.756;2023-03-12T07:49:37;3.00;;;1.83;;
7177;SDS011;3630;42.146;24.756;2023-03-12T07:52:07;2.03;;;1.93;;
7177;SDS011;3630;42.146;24.756;2023-03-12T07:54:35;1.93;;;1.83;;
7177;SDS011;3630;42.146;24.756;2023-03-12T07:57:03;3.22;;;2.17;;
7177;SDS011;3630;42.146;24.756;2023-03-12T07:59:30;2.70;;;1.97;;
7177;SDS011;3630;42.146;24.756;2023-03-12T08:01:57;2.20;;;2.00;;
7177;SDS011;3630;42.146;24.756;2023-03-12T08:04:24;3.00;;;2.70;;
7177;SDS011;3630;42.146;24.756;2023-03-12T08:06:50;2.10;;;2.00;;
7177;SDS011;3630;42.146;24.756;2023-03-12T08:09:19;2.67;;;2.07;;
7177;SDS011;3630;42.146;24.756;2023-03-12T08:11:46;2.87;;;2.13;;
7177;SDS011;3630;42.146;24.756;2023-03-12T08:14:12;2.17;;;1.93;;
7177;SDS011;3630;42.146;24.756;2023-03-12T08:16:39;3.00;;;2.60;;
7177;SDS011;3630;42.146;24.756;2023-03-12T08:19:06;4.93;;;2.37;;
7177;SDS011;3630;42.146;24.756;2023-03-12T08:21:33;2.00;;;1.80;;
7177;SDS011;3630;42.146;24.756;2023-03-12T08:24:00;2.70;;;2.50;;
7177;SDS011;3630;42.146;24.756;2023-03-12T08:26:28;1.77;;;1.67;;
7177;SDS011;3630;42.146;24.756;2023-03-12T08:28:55;3.80;;;2.20;;
7177;SDS011;3630;42.146;24.756;2023-03-12T08:31:24;2.33;;;2.13;;
7177;SDS011;3630;42.146;24.756;2023-03-12T08:33:51;2.43;;;2.23;;
7177;SDS011;3630;42.146;24.756;2023-03-12T08:36:18;3.27;;;2.47;;
7177;SDS011;3630;42.146;24.756;2023-03-12T08:38:44;2.13;;;1.93;;
7177;SDS011;3630;42.146;24.756;2023-03-12T08:41:11;4.30;;;2.47;;
7177;SDS011;3630;42.146;24.756;2023-03-12T08:43:39;2.10;;;2.00;;
7177;SDS011;3630;42.146;24.756;2023-03-12T08:46:06;4.70;;;2.43;;
7177;SDS011;3630;42.146;24.756;2023-03-12T08:48:33;7.87;;;2.20;;
7177;SDS011;3630;42.146;24.756;2023-03-12T08:51:00;5.10;;;2.67;;
7177;SDS011;3630;42.146;24.756;2023-03-12T08:53:28;4.20;;;2.53;;
7177;SDS011;3630;42.146;24.756;2023-03-12T08:55:56;2.70;;;1.80;;
7177;SDS011;3630;42.146;24.756;2023-03-12T08:58:23;3.70;;;1.80;;
7177;SDS011;3630;42.146;24.756;2023-03-12T09:00:52;2.43;;;1.83;;
7177;SDS011;3630;42.146;24.756;2023-03-12T09:03:20;1.67;;;1.57;;
7177;SDS011;3630;42.146;24.756;2023-03-12T09:05:49;2.10;;;2.00;;
7177;SDS011;3630;42.146;24.756;2023-03-12T09:08:16;3.53;;;2.30;;
7177;SDS011;3630;42.146;24.756;2023-03-12T09:10:46;2.53;;;1.90;;
7177;SDS011;3630;42.146;24.756;2023-03-12T09:13:13;3.30;;;2.33;;
7177;SDS011;3630;42.146;24.756;2023-03-12T09:15:40;3.10;;;2.60;;
7177;SDS011;3630;42.146;24.756;2023-03-12T09:18:08;2.10;;;1.90;;
7177;SDS011;3630;42.146;24.756;2023-03-12T09:20:35;6.30;;;2.20;;
7177;SDS011;3630;42.146;24.756;2023-03-12T09:23:02;4.53;;;2.10;;
7177;SDS011;3630;42.146;24.756;2023-03-12T09:25:29;2.30;;;2.07;;
7177;SDS011;3630;42.146;24.756;2023-03-12T09:27:56;2.67;;;2.03;;
7177;SDS011;3630;42.146;24.756;2023-03-12T09:30:23;2.67;;;2.47;;
7177;SDS011;3630;42.146;24.756;2023-03-12T09:32:51;2.63;;;2.53;;
7177;SDS011;3630;42.146;24.756;2023-03-12T09:35:20;3.40;;;2.40;;
7177;SDS011;3630;42.146;24.756;2023-03-12T09:37:47;2.77;;;2.33;;
7177;SDS011;3630;42.146;24.756;2023-03-12T09:40:15;3.87;;;1.90;;
7177;SDS011;3630;42.146;24.756;2023-03-12T09:42:45;2.40;;;2.20;;
7177;SDS011;3630;42.146;24.756;2023-03-12T09:45:17;7.47;;;2.33;;
7177;SDS011;3630;42.146;24.756;2023-03-12T09:47:48;3.87;;;3.23;;
7177;SDS011;3630;42.146;24.756;2023-03-12T09:50:20;3.20;;;2.90;;
7177;SDS011;3630;42.146;24.756;2023-03-12T09:52:52;4.57;;;3.20;;
7177;SDS011;3630;42.146;24.756;2023-03-12T09:55:24;3.97;;;3.00;;
7177;SDS011;3630;42.146;24.756;2023-03-12T09:57:53;2.77;;;2.27;;
7177;SDS011;3630;42.146;24.756;2023-03-12T10:00:23;3.60;;;2.33;;
7177;SDS011;3630;42.146;24.756;2023-03-12T10:03:01;3.83;;;2.33;;
7177;SDS011;3630;42.146;24.756;2023-03-12T10:05:50;2.60;;;2.40;;
7177;SDS011;3630;42.146;24.756;2023-03-12T10:08:30;2.20;;;2.10;;
7177;SDS011;3630;42.146;24.756;2023-03-12T10:11:02;4.67;;;2.47;;
7177;SDS011;3630;42.146;24.756;2023-03-12T10:13:42;2.80;;;2.40;;
7177;SDS011;3630;42.146;24.756;2023-03-12T10:16:21;3.20;;;2.90;;
7177;SDS011;3630;42.146;24.756;2023-03-12T10:19:01;5.10;;;2.97;;
7177;SDS011;3630;42.146;24.756;2023-03-12T10:21:40;3.20;;;2.47;;
7177;SDS011;3630;42.146;24.756;2023-03-12T10:24:19;3.15;;;2.45;;
7177;SDS011;3630;42.146;24.756;2023-03-12T10:26:56;3.27;;;2.70;;
7177;SDS011;3630;42.146;24.756;2023-03-12T10:29:26;3.38;;;2.80;;
7177;SDS011;3630;42.146;24.756;2023-03-12T10:31:57;2.73;;;2.53;;
7177;SDS011;3630;42.146;24.756;2023-03-12T10:34:28;4.37;;;3.30;;
7177;SDS011;3630;42.146;24.756;2023-03-12T10:37:02;3.77;;;2.70;;
7177;SDS011;3630;42.146;24.756;2023-03-12T10:39:32;5.10;;;2.73;;
7177;SDS011;3630;42.146;24.756;2023-03-12T10:41:59;3.88;;;3.47;;
7177;SDS011;3630;42.146;24.756;2023-03-12T10:44:26;3.00;;;2.70;;
7177;SDS011;3630;42.146;24.756;2023-03-12T10:49:50;3.07;;;2.70;;
7177;SDS011;3630;42.146;24.756;2023-03-12T10:52:19;3.47;;;3.17;;
7177;SDS011;3630;42.146;24.756;2023-03-12T10:54:47;3.60;;;3.00;;
7177;SDS011;3630;42.146;24.756;2023-03-12T10:57:15;3.87;;;3.40;;
7177;SDS011;3630;42.146;24.756;2023-03-12T10:59:43;3.63;;;2.93;;
7177;SDS011;3630;42.146;24.756;2023-03-12T11:02:24;3.27;;;2.90;;
7177;SDS011;3630;42.146;24.756;2023-03-12T11:04:55;2.80;;;2.60;;
7177;SDS011;3630;42.146;24.756;2023-03-12T11:07:24;4.32;;;2.85;;
7177;SDS011;3630;42.146;24.756;2023-03-12T11:10:17;3.00;;;2.80;;
7177;SDS011;3630;42.146;24.756;2023-03-12T11:12:59;2.83;;;2.63;;
7177;SDS011;3630;42.146;24.756;2023-03-12T11:15:29;3.43;;;2.73;;
7177;SDS011;3630;42.146;24.756;2023-03-12T11:18:20;3.23;;;2.90;;
7177;SDS011;3630;42.146;24.756;2023-03-12T11:20:50;3.33;;;2.40;;
7177;SDS011;3630;42.146;24.756;2023-03-12T11:23:22;4.63;;;3.27;;
7177;SDS011;3630;42.146;24.756;2023-03-12T11:25:54;3.50;;;3.20;;
7177;SDS011;3630;42.146;24.756;2023-03-12T11:28:24;3.83;;;3.30;;
7177;SDS011;3630;42.146;24.756;2023-03-12T11:31:01;5.30;;;3.20;;
7177;SDS011;3630;42.146;24.756;2023-03-12T11:33:29;2.70;;;2.50;;
7177;SDS011;3630;42.146;24.756;2023-03-12T11:35:59;3.63;;;3.33;;
7177;SDS011;3630;42.146;24.756;2023-03-12T11:38:36;3.10;;;2.83;;
7177;SDS011;3630;42.146;24.756;2023-03-12T11:41:10;5.27;;;3.57;;
7177;SDS011;3630;42.146;24.756;2023-03-12T11:43:52;3.27;;;2.97;;
7177;SDS011;3630;42.146;24.756;2023-03-12T11:46:32;3.63;;;2.60;;
7177;SDS011;3630;42.146;24.756;2023-03-12T11:49:13;4.00;;;3.13;;
7177;SDS011;3630;42.146;24.756;2023-03-12T11:51:54;4.50;;;3.03;;
7177;SDS011;3630;42.146;24.756;2023-03-12T11:54:36;2.73;;;2.53;;
7177;SDS011;3630;42.146;24.756;2023-03-12T11:57:14;3.03;;;2.70;;
7177;SDS011;3630;42.146;24.756;2023-03-12T11:59:53;4.23;;;3.10;;
7177;SDS011;3630;42.146;24.756;2023-03-12T12:02:39;2.90;;;2.70;;
7177;SDS011;3630;42.146;24.756;2023-03-12T12:05:20;3.03;;;2.53;;
7177;SDS011;3630;42.146;24.756;2023-03-12T12:07:57;2.73;;;2.30;;
7177;SDS011;3630;42.146;24.756;2023-03-12T12:10:36;3.03;;;2.17;;
7177;SDS011;3630;42.146;24.756;2023-03-12T12:13:13;2.83;;;2.47;;
7177;SDS011;3630;42.146;24.756;2023-03-12T12:15:49;4.05;;;3.10;;
7177;SDS011;3630;42.146;24.756;2023-03-12T12:18:31;3.90;;;3.07;;
7177;SDS011;3630;42.146;24.756;2023-03-12T12:21:12;2.90;;;2.60;;
7177;SDS011;3630;42.146;24.756;2023-03-12T12:23:50;2.70;;;2.50;;
7177;SDS011;3630;42.146;24.756;2023-03-12T12:26:26;2.40;;;2.20;;
7177;SDS011;3630;42.146;24.756;2023-03-12T12:29:12;2.77;;;2.57;;
7177;SDS011;3630;42.146;24.756;2023-03-12T12:31:47;2.27;;;2.10;;
7177;SDS011;3630;42.146;24.756;2023-03-12T12:37:13;2.83;;;2.60;;
7177;SDS011;3630;42.146;24.756;2023-03-12T12:39:49;4.00;;;2.73;;
7177;SDS011;3630;42.146;24.756;2023-03-12T12:42:27;3.07;;;2.73;;
7177;SDS011;3630;42.146;24.756;2023-03-12T12:44:57;2.33;;;2.13;;
7177;SDS011;3630;42.146;24.756;2023-03-12T12:47:34;2.70;;;2.30;;
7177;SDS011;3630;42.146;24.756;2023-03-12T12:50:06;4.40;;;2.07;;
7177;SDS011;3630;42.146;24.756;2023-03-12T12:52:38;3.50;;;2.70;;
7177;SDS011;3630;42.146;24.756;2023-03-12T12:55:09;3.10;;;2.50;;
7177;SDS011;3630;42.146;24.756;2023-03-12T12:57:43;2.90;;;2.30;;
7177;SDS011;3630;42.146;24.756;2023-03-12T13:00:19;2.30;;;2.10;;
7177;SDS011;3630;42.146;24.756;2023-03-12T13:02:54;2.17;;;2.03;;
7177;SDS011;3630;42.146;24.756;2023-03-12T13:05:24;2.03;;;1.93;;
7177;SDS011;3630;42.146;24.756;2023-03-12T13:07:53;2.57;;;2.37;;
7177;SDS011;3630;42.146;24.756;2023-03-12T13:10:37;3.93;;;3.53;;
7177;SDS011;3630;42.146;24.756;2023-03-12T13:13:10;3.20;;;2.40;;
7177;SDS011;3630;42.146;24.756;2023-03-12T13:15:43;3.60;;;2.23;;
7177;SDS011;3630;42.146;24.756;2023-03-12T13:18:22;2.97;;;2.60;;
7177;SDS011;3630;42.146;24.756;2023-03-12T13:21:05;3.53;;;2.60;;
7177;SDS011;3630;42.146;24.756;2023-03-12T13:23:42;2.70;;;2.50;;
7177;SDS011;3630;42.146;24.756;2023-03-12T13:26:17;2.83;;;2.33;;
7177;SDS011;3630;42.146;24.756;2023-03-12T13:28:57;2.10;;;1.90;;
7177;SDS011;3630;42.146;24.756;2023-03-12T13:31:34;3.63;;;2.42;;
7177;SDS011;3630;42.146;24.756;2023-03-12T13:37:18;2.50;;;2.30;;
7177;SDS011;3630;42.146;24.756;2023-03-12T13:39:52;2.70;;;2.50;;
7177;SDS011;3630;42.146;24.756;2023-03-12T13:42:26;3.13;;;2.40;;
7177;SDS011;3630;42.146;24.756;2023-03-12T13:47:58;2.33;;;2.13;;
7177;SDS011;3630;42.146;24.756;2023-03-12T13:50:26;2.80;;;2.27;;
7177;SDS011;3630;42.146;24.756;2023-03-12T13:52:59;2.20;;;1.97;;
7177;SDS011;3630;42.146;24.756;2023-03-12T13:55:29;3.33;;;2.20;;
7177;SDS011;3630;42.146;24.756;2023-03-12T13:57:59;3.03;;;2.60;;
7177;SDS011;3630;42.146;24.756;2023-03-12T14:00:37;2.70;;;2.50;;
7177;SDS011;3630;42.146;24.756;2023-03-12T14:03:10;2.30;;;2.10;;
7177;SDS011;3630;42.146;24.756;2023-03-12T14:05:46;2.40;;;2.20;;
7177;SDS011;3630;42.146;24.756;2023-03-12T14:08:22;2.63;;;2.43;;
7177;SDS011;3630;42.146;24.756;2023-03-12T14:11:02;2.60;;;2.40;;
7177;SDS011;3630;42.146;24.756;2023-03-12T14:13:58;2.60;;;2.40;;
7177;SDS011;3630;42.146;24.756;2023-03-12T14:16:39;2.43;;;2.13;;
7177;SDS011;3630;42.146;24.756;2023-03-12T14:19:10;3.10;;;1.73;;
7177;SDS011;3630;42.146;24.756;2023-03-12T14:21:39;1.97;;;1.87;;
7177;SDS011;3630;42.146;24.756;2023-03-12T14:24:19;2.50;;;2.30;;
7177;SDS011;3630;42.146;24.756;2023-03-12T14:26:49;2.20;;;2.00;;
7177;SDS011;3630;42.146;24.756;2023-03-12T14:29:18;2.70;;;2.37;;
7177;SDS011;3630;42.146;24.756;2023-03-12T14:31:49;2.60;;;2.40;;
7177;SDS011;3630;42.146;24.756;2023-03-12T14:34:19;2.53;;;2.17;;
7177;SDS011;3630;42.146;24.756;2023-03-12T14:36:48;2.63;;;2.43;;
7177;SDS011;3630;42.146;24.756;2023-03-12T14:39:26;2.07;;;1.87;;
7177;SDS011;3630;42.146;24.756;2023-03-12T14:41:57;2.20;;;2.10;;
7177;SDS011;3630;42.146;24.756;2023-03-12T14:44:29;2.30;;;2.10;;
7177;SDS011;3630;42.146;24.756;2023-03-12T14:46:59;2.33;;;2.05;;
7177;SDS011;3630;42.146;24.756;2023-03-12T14:49:27;3.10;;;2.70;;
7177;SDS011;3630;42.146;24.756;2023-03-12T14:51:56;2.13;;;1.97;;
7177;SDS011;3630;42.146;24.756;2023-03-12T14:54:24;2.90;;;2.60;;
7177;SDS011;3630;42.146;24.756;2023-03-12T14:56:52;2.43;;;2.23;;
7177;SDS011;3630;42.146;24.756;2023-03-12T14:59:23;3.47;;;2.73;;
7177;SDS011;3630;42.146;24.756;2023-03-12T15:01:51;2.90;;;2.50;;
7177;SDS011;3630;42.146;24.756;2023-03-12T15:04:25;2.60;;;2.20;;
7177;SDS011;3630;42.146;24.756;2023-03-12T15:06:53;2.90;;;1.83;;
7177;SDS011;3630;42.146;24.756;2023-03-12T15:09:24;2.37;;;2.17;;
7177;SDS011;3630;42.146;24.756;2023-03-12T15:11:52;3.60;;;2.10;;
7177;SDS011;3630;42.146;24.756;2023-03-12T15:14:21;2.70;;;2.50;;
7177;SDS011;3630;42.146;24.756;2023-03-12T15:16:51;3.00;;;2.70;;
7177;SDS011;3630;42.146;24.756;2023-03-12T15:19:19;2.73;;;2.53;;
7177;SDS011;3630;42.146;24.756;2023-03-12T15:21:51;3.13;;;2.80;;
7177;SDS011;3630;42.146;24.756;2023-03-12T15:24:19;3.37;;;2.73;;
7177;SDS011;3630;42.146;24.756;2023-03-12T15:26:46;3.63;;;3.33;;
7177;SDS011;3630;42.146;24.756;2023-03-12T15:29:15;4.60;;;2.97;;